sensor_id;sensor_type;location;lat;lon;timestamp;pressure;altitude;pressure_sealevel;temperature;humidity
25638;BME280;13496;51.040;13.680;2023-03-23T00:04:49;99005.16;;;19.62;52.32
25638;BME280;13496;51.040;13.680;2023-03-23T00:09:52;99005.97;;;19.63;52.14
25638;BME280;13496;51.040;13.680;2023-03-23T00:14:57;99005.16;;;19.62;52.21
25638;BME280;13496;51.040;13.680;2023-03-23T00:19:59;99007.16;;;19.60;52.09
25638;BME280;13496;51.040;13.680;2023-03-23T00:25:02;99001.31;;;19.58;52.12
25638;BME280;13496;51.040;13.680;2023-03-23T00:30:04;99002.31;;;19.57;52.36
25638;BME280;13496;51.040;13.680;2023-03-23T00:35:07;98997.84;;;19.57;51.93
25638;BME280;13496;51.040;13.680;2023-03-23T00:40:10;99000.72;;;19.56;52.12
25638;BME280;13496;51.040;13.680;2023-03-23T00:45:12;98991.78;;;19.57;52.08
25638;BME280;13496;51.040;13.680;2023-03-23T00:50:14;98991.00;;;19.56;52.14
25638;BME280;13496;51.040;13.680;2023-03-23T00:55:16;98990.19;;;19.56;52.05
25638;BME280;13496;51.040;13.680;2023-03-23T01:00:18;98981.69;;;19.54;51.95
25638;BME280;13496;51.040;13.680;2023-03-23T01:05:20;98971.16;;;19.54;52.03
25638;BME280;13496;51.040;13.680;2023-03-23T01:10:22;98973.00;;;19.53;51.87
25638;BME280;13496;51.040;13.680;2023-03-23T01:15:27;98952.16;;;19.52;52.22
25638;BME280;13496;51.040;13.680;2023-03-23T01:20:29;98940.22;;;19.49;52.30
25638;BME280;13496;51.040;13.680;2023-03-23T01:25:35;98936.56;;;19.50;51.80
25638;BME280;13496;51.040;13.680;2023-03-23T01:30:37;98934.16;;;19.49;51.96
25638;BME280;13496;51.040;13.680;2023-03-23T01:35:39;98924.69;;;19.48;52.07
25638;BME280;13496;51.040;13.680;2023-03-23T01:40:41;98918.63;;;19.47;52.06
25638;BME280;13496;51.040;13.680;2023-03-23T01:45:43;98914.16;;;19.48;52.10
25638;BME280;13496;51.040;13.680;2023-03-23T01:56:06;98911.94;;;19.45;52.04
25638;BME280;13496;51.040;13.680;2023-03-23T02:01:12;98907.47;;;19.45;52.08
25638;BME280;13496;51.040;13.680;2023-03-23T02:06:14;98916.97;;;19.46;52.20
25638;BME280;13496;51.040;13.680;2023-03-23T02:11:34;98912.97;;;19.44;51.81
25638;BME280;13496;51.040;13.680;2023-03-23T02:17:05;98912.97;;;19.44;52.26
25638;BME280;13496;51.040;13.680;2023-03-23T02:33:35;98908.31;;;19.39;52.27
25638;BME280;13496;51.040;13.680;2023-03-23T02:38:50;98907.09;;;19.42;52.22
25638;BME280;13496;51.040;13.680;2023-03-23T02:43:55;98909.34;;;19.38;52.17
25638;BME280;13496;51.040;13.680;2023-03-23T02:48:58;98903.28;;;19.38;52.00
25638;BME280;13496;51.040;13.680;2023-03-23T02:54:03;98899.06;;;19.37;51.90
25638;BME280;13496;51.040;13.680;2023-03-23T02:59:06;98898.25;;;19.36;52.28
25638;BME280;13496;51.040;13.680;2023-03-23T03:04:14;98894.81;;;19.36;51.78
25638;BME280;13496;51.040;13.680;2023-03-23T03:14:49;98889.56;;;19.36;51.82
25638;BME280;13496;51.040;13.680;2023-03-23T03:19:57;98891.59;;;19.33;51.87
25638;BME280;13496;51.040;13.680;2023-03-23T03:25:01;98875.00;;;19.33;51.95
25638;BME280;13496;51.040;13.680;2023-03-23T03:30:06;98877.41;;;19.34;52.11
25638;BME280;13496;51.040;13.680;2023-03-23T03:35:11;98876.03;;;19.32;52.16
25638;BME280;13496;51.040;13.680;2023-03-23T03:40:17;98879.47;;;19.32;51.81
25638;BME280;13496;51.040;13.680;2023-03-23T03:45:20;98871.78;;;19.31;51.79
25638;BME280;13496;51.040;13.680;2023-03-23T03:50:22;98877.84;;;19.31;52.18
25638;BME280;13496;51.040;13.680;2023-03-23T03:55:24;98879.88;;;19.29;52.07
25638;BME280;13496;51.040;13.680;2023-03-23T04:00:27;98876.22;;;19.30;52.26
25638;BME280;13496;51.040;13.680;2023-03-23T04:05:29;98874.81;;;19.28;52.14
25638;BME280;13496;51.040;13.680;2023-03-23T04:10:31;98866.94;;;19.28;52.13
25638;BME280;13496;51.040;13.680;2023-03-23T04:15:34;98866.94;;;19.28;51.97
25638;BME280;13496;51.040;13.680;2023-03-23T04:20:36;98866.13;;;19.27;51.79
25638;BME280;13496;51.040;13.680;2023-03-23T04:25:38;98871.41;;;19.27;51.75
25638;BME280;13496;51.040;13.680;2023-03-23T04:30:42;98864.31;;;19.28;51.91
25638;BME280;13496;51.040;13.680;2023-03-23T04:35:47;98860.88;;;19.27;51.92
25638;BME280;13496;51.040;13.680;2023-03-23T04:40:55;98860.31;;;19.25;52.13
25638;BME280;13496;51.040;13.680;2023-03-23T04:46:10;98859.28;;;19.26;51.75
25638;BME280;13496;51.040;13.680;2023-03-23T04:51:12;98856.25;;;19.23;52.02
25638;BME280;13496;51.040;13.680;2023-03-23T04:56:16;98856.03;;;19.24;52.22
25638;BME280;13496;51.040;13.680;2023-03-23T05:01:20;98849.97;;;19.24;51.87
25638;BME280;13496;51.040;13.680;2023-03-23T05:06:33;98835.22;;;19.23;51.99
25638;BME280;13496;51.040;13.680;2023-03-23T05:11:41;98851.81;;;19.23;51.67
25638;BME280;13496;51.040;13.680;2023-03-23T05:16:43;98858.09;;;19.22;52.02
25638;BME280;13496;51.040;13.680;2023-03-23T05:21:51;98856.25;;;19.23;52.17
25638;BME280;13496;51.040;13.680;2023-03-23T05:26:53;98850.19;;;19.22;52.18
25638;BME280;13496;51.040;13.680;2023-03-23T05:32:00;98853.63;;;19.23;51.96
25638;BME280;13496;51.040;13.680;2023-03-23T05:37:04;98844.72;;;19.24;52.12
25638;BME280;13496;51.040;13.680;2023-03-23T05:42:22;98846.53;;;19.23;52.41
25638;BME280;13496;51.040;13.680;2023-03-23T05:47:37;98847.16;;;19.25;52.44
25638;BME280;13496;51.040;13.680;2023-03-23T05:52:44;98845.53;;;19.24;52.35
25638;BME280;13496;51.040;13.680;2023-03-23T05:57:48;98854.44;;;19.23;52.27
25638;BME280;13496;51.040;13.680;2023-03-23T06:03:00;98857.66;;;19.25;52.39
25638;BME280;13496;51.040;13.680;2023-03-23T06:08:13;98861.09;;;19.26;52.33
25638;BME280;13496;51.040;13.680;2023-03-23T06:13:15;98862.13;;;19.25;52.16
25638;BME280;13496;51.040;13.680;2023-03-23T06:18:25;98864.53;;;19.26;52.47
25638;BME280;13496;51.040;13.680;2023-03-23T06:23:40;98856.63;;;19.26;52.22
25638;BME280;13496;51.040;13.680;2023-03-23T06:28:43;98846.72;;;19.28;52.39
25638;BME280;13496;51.040;13.680;2023-03-23T06:33:44;98853.16;;;19.32;51.68
25638;BME280;13496;51.040;13.680;2023-03-23T06:39:02;98856.78;;;19.31;52.09
25638;BME280;13496;51.040;13.680;2023-03-23T06:44:19;98871.56;;;19.32;51.46
25638;BME280;13496;51.040;13.680;2023-03-23T06:49:21;98876.22;;;19.30;51.52
25638;BME280;13496;51.040;13.680;2023-03-23T06:54:29;98886.75;;;19.30;51.12
25638;BME280;13496;51.040;13.680;2023-03-23T06:59:32;98885.31;;;19.34;51.81
25638;BME280;13496;51.040;13.680;2023-03-23T07:04:34;98888.31;;;19.38;51.55
25638;BME280;13496;51.040;13.680;2023-03-23T07:09:45;98890.75;;;19.40;51.21
25638;BME280;13496;51.040;13.680;2023-03-23T07:14:47;98889.72;;;19.41;51.13
25638;BME280;13496;51.040;13.680;2023-03-23T07:19:49;98897.75;;;19.46;50.91
25638;BME280;13496;51.040;13.680;2023-03-23T07:24:52;98912.53;;;19.47;51.50
25638;BME280;13496;51.040;13.680;2023-03-23T07:30:00;98921.81;;;19.49;51.17
25638;BME280;13496;51.040;13.680;2023-03-23T07:35:02;98912.91;;;19.50;51.10
25638;BME280;13496;51.040;13.680;2023-03-23T07:40:26;98920.16;;;19.55;50.77
25638;BME280;13496;51.040;13.680;2023-03-23T07:45:30;98920.97;;;19.55;51.43
25638;BME280;13496;51.040;13.680;2023-03-23T07:50:33;98929.06;;;19.54;50.53
25638;BME280;13496;51.040;13.680;2023-03-23T07:55:37;98933.88;;;19.64;51.11
25638;BME280;13496;51.040;13.680;2023-03-23T08:00:52;98927.41;;;19.59;50.74
25638;BME280;13496;51.040;13.680;2023-03-23T08:05:58;98951.28;;;19.65;50.77
25638;BME280;13496;51.040;13.680;2023-03-23T08:11:03;98945.03;;;19.66;50.58
25638;BME280;13496;51.040;13.680;2023-03-23T08:16:24;98943.44;;;19.58;50.70
25638;BME280;13496;51.040;13.680;2023-03-23T08:21:38;98950.09;;;19.54;50.55
25638;BME280;13496;51.040;13.680;2023-03-23T08:27:00;98952.13;;;19.58;50.87
25638;BME280;13496;51.040;13.680;2023-03-23T08:32:16;98967.69;;;19.60;50.66
25638;BME280;13496;51.040;13.680;2023-03-23T08:37:50;98968.72;;;19.59;50.61
25638;BME280;13496;51.040;13.680;2023-03-23T08:43:18;98964.84;;;19.62;50.96
25638;BME280;13496;51.040;13.680;2023-03-23T08:48:39;98970.72;;;19.64;50.50
25638;BME280;13496;51.040;13.680;2023-03-23T08:54:09;98965.84;;;19.67;50.47
25638;BME280;13496;51.040;13.680;2023-03-23T08:59:29;98973.13;;;19.65;50.63
25638;BME280;13496;51.040;13.680;2023-03-23T09:04:51;98962.19;;;19.68;50.96
25638;BME280;13496;51.040;13.680;2023-03-23T09:09:57;98963.13;;;19.80;50.79
25638;BME280;13496;51.040;13.680;2023-03-23T09:14:58;98984.78;;;19.76;50.84
25638;BME280;13496;51.040;13.680;2023-03-23T09:20:00;98974.50;;;19.74;50.95
25638;BME280;13496;51.040;13.680;2023-03-23T09:25:02;98976.97;;;19.69;50.83
25638;BME280;13496;51.040;13.680;2023-03-23T09:30:09;98988.69;;;19.73;50.98
25638;BME280;13496;51.040;13.680;2023-03-23T09:35:11;98986.44;;;19.77;50.66
25638;BME280;13496;51.040;13.680;2023-03-23T09:40:18;98994.09;;;19.78;50.76
25638;BME280;13496;51.040;13.680;2023-03-23T09:45:52;98994.09;;;19.78;50.96
25638;BME280;13496;51.040;13.680;2023-03-23T09:51:11;98990.06;;;19.76;50.74
25638;BME280;13496;51.040;13.680;2023-03-23T09:56:17;98984.34;;;19.86;50.50
25638;BME280;13496;51.040;13.680;2023-03-23T10:01:26;98984.47;;;19.91;50.55
25638;BME280;13496;51.040;13.680;2023-03-23T10:06:29;98991.28;;;19.98;50.21
25638;BME280;13496;51.040;13.680;2023-03-23T10:17:08;98972.06;;;19.98;50.59
25638;BME280;13496;51.040;13.680;2023-03-23T10:22:15;98975.69;;;20.03;50.58
25638;BME280;13496;51.040;13.680;2023-03-23T10:27:26;98989.66;;;20.04;50.57
25638;BME280;13496;51.040;13.680;2023-03-23T10:32:41;98984.16;;;20.05;50.67
25638;BME280;13496;51.040;13.680;2023-03-23T10:37:54;98983.34;;;20.05;50.29
25638;BME280;13496;51.040;13.680;2023-03-23T10:42:58;98964.91;;;20.05;50.39
25638;BME280;13496;51.040;13.680;2023-03-23T10:48:27;98965.72;;;20.05;50.71
25638;BME280;13496;51.040;13.680;2023-03-23T10:53:42;98958.13;;;20.16;50.34
25638;BME280;13496;51.040;13.680;2023-03-23T10:58:45;98960.56;;;20.17;50.53
25638;BME280;13496;51.040;13.680;2023-03-23T11:03:48;98954.94;;;20.14;50.30
25638;BME280;13496;51.040;13.680;2023-03-23T11:09:01;98958.38;;;20.14;49.83
25638;BME280;13496;51.040;13.680;2023-03-23T11:14:24;98964.34;;;20.03;49.80
25638;BME280;13496;51.040;13.680;2023-03-23T11:19:32;98980.34;;;20.01;50.16
25638;BME280;13496;51.040;13.680;2023-03-23T11:24:42;98986.63;;;20.00;50.91
25638;BME280;13496;51.040;13.680;2023-03-23T11:30:00;98982.41;;;19.99;51.08
25638;BME280;13496;51.040;13.680;2023-03-23T11:35:27;98980.38;;;19.95;50.47
25638;BME280;13496;51.040;13.680;2023-03-23T11:40:31;99004.47;;;19.98;50.35
25638;BME280;13496;51.040;13.680;2023-03-23T11:51:01;99012.53;;;20.03;50.59
25638;BME280;13496;51.040;13.680;2023-03-23T11:56:23;99012.13;;;20.06;50.54
25638;BME280;13496;51.040;13.680;2023-03-23T12:01:47;99021.84;;;20.06;50.03
25638;BME280;13496;51.040;13.680;2023-03-23T12:06:54;99026.09;;;20.07;49.94
25638;BME280;13496;51.040;13.680;2023-03-23T12:12:15;99012.88;;;20.14;49.97
25638;BME280;13496;51.040;13.680;2023-03-23T12:17:25;99019.84;;;20.26;49.67
25638;BME280;13496;51.040;13.680;2023-03-23T12:22:55;99009.16;;;20.21;49.69
25638;BME280;13496;51.040;13.680;2023-03-23T12:33:18;98990.00;;;20.33;50.18
25638;BME280;13496;51.040;13.680;2023-03-23T12:38:38;98998.69;;;20.33;50.11
25638;BME280;13496;51.040;13.680;2023-03-23T12:43:50;98993.63;;;20.31;49.81
25638;BME280;13496;51.040;13.680;2023-03-23T12:49:12;98990.78;;;20.33;49.85
25638;BME280;13496;51.040;13.680;2023-03-23T12:54:33;98987.06;;;20.41;49.98
25638;BME280;13496;51.040;13.680;2023-03-23T12:59:47;98985.66;;;20.38;50.31
25638;BME280;13496;51.040;13.680;2023-03-23T13:04:57;98980.06;;;20.53;49.33
25638;BME280;13496;51.040;13.680;2023-03-23T13:10:54;98979.31;;;20.46;49.76
25638;BME280;13496;51.040;13.680;2023-03-23T13:15:51;98991.41;;;20.53;49.37
25638;BME280;13496;51.040;13.680;2023-03-23T13:21:19;98975.03;;;20.51;49.57
25638;BME280;13496;51.040;13.680;2023-03-23T13:26:23;98965.00;;;20.60;48.95
25638;BME280;13496;51.040;13.680;2023-03-23T13:36:34;98963.06;;;20.49;48.91
25638;BME280;13496;51.040;13.680;2023-03-23T13:41:54;98942.31;;;20.59;49.51
25638;BME280;13496;51.040;13.680;2023-03-23T13:47:14;98930.00;;;20.53;48.22
25638;BME280;13496;51.040;13.680;2023-03-23T13:57:50;98918.78;;;20.58;49.96
25638;BME280;13496;51.040;13.680;2023-03-23T14:03:09;98918.00;;;20.57;49.20
25638;BME280;13496;51.040;13.680;2023-03-23T14:08:20;98912.72;;;20.57;48.66
25638;BME280;13496;51.040;13.680;2023-03-23T14:13:32;98917.47;;;20.48;49.07
25638;BME280;13496;51.040;13.680;2023-03-23T14:18:36;98908.56;;;20.49;49.59
25638;BME280;13496;51.040;13.680;2023-03-23T14:23:39;98903.06;;;20.51;49.16
25638;BME280;13496;51.040;13.680;2023-03-23T14:28:44;98922.09;;;20.53;48.50
25638;BME280;13496;51.040;13.680;2023-03-23T14:33:48;98921.78;;;20.43;48.91
25638;BME280;13496;51.040;13.680;2023-03-23T14:39:19;98931.44;;;20.49;48.84
25638;BME280;13496;51.040;13.680;2023-03-23T14:44:28;98945.25;;;20.51;48.45
25638;BME280;13496;51.040;13.680;2023-03-23T14:49:34;98925.88;;;20.57;48.87
25638;BME280;13496;51.040;13.680;2023-03-23T14:54:37;98942.13;;;20.54;49.21
25638;BME280;13496;51.040;13.680;2023-03-23T14:59:44;98936.31;;;20.52;48.95
25638;BME280;13496;51.040;13.680;2023-03-23T15:04:48;98942.59;;;20.51;49.82
25638;BME280;13496;51.040;13.680;2023-03-23T15:09:51;98937.53;;;20.49;49.31
25638;BME280;13496;51.040;13.680;2023-03-23T15:14:58;98937.81;;;20.41;48.56
25638;BME280;13496;51.040;13.680;2023-03-23T15:20:20;98930.34;;;20.38;48.90
25638;BME280;13496;51.040;13.680;2023-03-23T15:25:29;98943.75;;;20.37;49.44
25638;BME280;13496;51.040;13.680;2023-03-23T15:30:35;98952.31;;;20.32;49.62
25638;BME280;13496;51.040;13.680;2023-03-23T15:35:47;98952.56;;;20.24;48.48
25638;BME280;13496;51.040;13.680;2023-03-23T15:40:55;98961.06;;;20.26;49.07
25638;BME280;13496;51.040;13.680;2023-03-23T15:45:59;98969.78;;;20.26;49.75
25638;BME280;13496;51.040;13.680;2023-03-23T15:51:07;98973.88;;;20.22;48.88
25638;BME280;13496;51.040;13.680;2023-03-23T15:56:11;98974.69;;;20.23;49.37
25638;BME280;13496;51.040;13.680;2023-03-23T16:01:26;98984.41;;;20.22;49.10
25638;BME280;13496;51.040;13.680;2023-03-23T16:06:30;98987.69;;;20.18;49.44
25638;BME280;13496;51.040;13.680;2023-03-23T16:11:33;98969.09;;;20.13;49.79
25638;BME280;13496;51.040;13.680;2023-03-23T16:16:46;98976.06;;;20.07;50.25
25638;BME280;13496;51.040;13.680;2023-03-23T16:21:48;98977.66;;;20.08;50.24
25638;BME280;13496;51.040;13.680;2023-03-23T16:26:50;98977.88;;;20.06;49.58
25638;BME280;13496;51.040;13.680;2023-03-23T16:31:52;99021.84;;;20.06;49.77
25638;BME280;13496;51.040;13.680;2023-03-23T16:36:53;99018.38;;;20.05;50.09
25638;BME280;13496;51.040;13.680;2023-03-23T16:41:55;99022.03;;;20.04;50.22
25638;BME280;13496;51.040;13.680;2023-03-23T16:46:57;99030.38;;;20.01;50.31
25638;BME280;13496;51.040;13.680;2023-03-23T16:51:59;99034.84;;;20.01;50.01
25638;BME280;13496;51.040;13.680;2023-03-23T16:57:01;99025.34;;;20.00;50.20
25638;BME280;13496;51.040;13.680;2023-03-23T17:02:03;99025.53;;;19.98;50.27
25638;BME280;13496;51.040;13.680;2023-03-23T17:07:05;99029.78;;;19.99;50.57
25638;BME280;13496;51.040;13.680;2023-03-23T17:12:07;99026.34;;;19.99;50.28
25638;BME280;13496;51.040;13.680;2023-03-23T17:17:08;99038.50;;;20.00;50.19
25638;BME280;13496;51.040;13.680;2023-03-23T17:22:10;99062.63;;;19.97;50.33
25638;BME280;13496;51.040;13.680;2023-03-23T17:27:14;99062.84;;;19.95;50.04
25638;BME280;13496;51.040;13.680;2023-03-23T17:32:18;99052.50;;;19.94;50.21
25638;BME280;13496;51.040;13.680;2023-03-23T17:37:21;99060.81;;;19.91;49.95
25638;BME280;13496;51.040;13.680;2023-03-23T17:42:23;99060.41;;;19.94;50.40
25638;BME280;13496;51.040;13.680;2023-03-23T17:47:25;99062.00;;;19.95;50.43
25638;BME280;13496;51.040;13.680;2023-03-23T17:52:32;99054.13;;;19.95;49.87
25638;BME280;13496;51.040;13.680;2023-03-23T17:57:34;99054.34;;;19.93;50.17
25638;BME280;13496;51.040;13.680;2023-03-23T18:02:36;99053.53;;;19.93;50.86
25638;BME280;13496;51.040;13.680;2023-03-23T18:07:37;99051.13;;;19.91;50.64
25638;BME280;13496;51.040;13.680;2023-03-23T18:12:40;99070.38;;;19.92;50.45
25638;BME280;13496;51.040;13.680;2023-03-23T18:17:42;99061.06;;;19.89;50.67
25638;BME280;13496;51.040;13.680;2023-03-23T18:22:48;99068.94;;;19.89;50.74
25638;BME280;13496;51.040;13.680;2023-03-23T18:27:50;99075.81;;;19.90;50.72
25638;BME280;13496;51.040;13.680;2023-03-23T18:32:52;99065.28;;;19.90;51.18
25638;BME280;13496;51.040;13.680;2023-03-23T18:37:53;99068.72;;;19.91;51.17
25638;BME280;13496;51.040;13.680;2023-03-23T18:42:55;99068.16;;;19.89;51.05
25638;BME280;13496;51.040;13.680;2023-03-23T18:47:57;99058.41;;;19.89;50.81
25638;BME280;13496;51.040;13.680;2023-03-23T18:52:59;99070.78;;;19.89;51.14
25638;BME280;13496;51.040;13.680;2023-03-23T18:58:01;99058.66;;;19.88;51.12
25638;BME280;13496;51.040;13.680;2023-03-23T19:03:03;99069.19;;;19.88;51.14
25638;BME280;13496;51.040;13.680;2023-03-23T19:08:07;99068.16;;;19.89;50.98
25638;BME280;13496;51.040;13.680;2023-03-23T19:13:09;99064.09;;;19.86;51.42
25638;BME280;13496;51.040;13.680;2023-03-23T19:18:11;99069.59;;;19.85;51.41
25638;BME280;13496;51.040;13.680;2023-03-23T19:23:13;99068.78;;;19.84;51.46
25638;BME280;13496;51.040;13.680;2023-03-23T19:28:15;99067.16;;;19.83;51.44
25638;BME280;13496;51.040;13.680;2023-03-23T19:33:17;99071.44;;;19.84;52.01
25638;BME280;13496;51.040;13.680;2023-03-23T19:38:21;99059.25;;;19.83;52.17
25638;BME280;13496;51.040;13.680;2023-03-23T19:43:23;99053.19;;;19.82;52.05
25638;BME280;13496;51.040;13.680;2023-03-23T19:48:25;99057.06;;;19.80;52.19
25638;BME280;13496;51.040;13.680;2023-03-23T19:53:26;99046.75;;;19.78;51.86
25638;BME280;13496;51.040;13.680;2023-03-23T19:58:28;99052.00;;;19.78;52.28
25638;BME280;13496;51.040;13.680;2023-03-23T20:03:30;99058.88;;;19.79;51.98
25638;BME280;13496;51.040;13.680;2023-03-23T20:08:32;99068.22;;;19.75;52.37
25638;BME280;13496;51.040;13.680;2023-03-23T20:13:34;99058.72;;;19.74;52.22
25638;BME280;13496;51.040;13.680;2023-03-23T20:18:36;99070.66;;;19.77;52.38
25638;BME280;13496;51.040;13.680;2023-03-23T20:23:40;99067.41;;;19.75;52.35
25638;BME280;13496;51.040;13.680;2023-03-23T20:28:42;99060.56;;;19.74;52.16
25638;BME280;13496;51.040;13.680;2023-03-23T20:33:44;99072.91;;;19.73;52.34
25638;BME280;13496;51.040;13.680;2023-03-23T20:38:46;99072.53;;;19.70;52.36
25638;BME280;13496;51.040;13.680;2023-03-23T20:43:48;99073.31;;;19.70;52.33
25638;BME280;13496;51.040;13.680;2023-03-23T20:48:50;99080.63;;;19.68;52.27
25638;BME280;13496;51.040;13.680;2023-03-23T20:53:52;99083.25;;;19.68;52.29
25638;BME280;13496;51.040;13.680;2023-03-23T20:58:55;99073.97;;;19.66;52.57
25638;BME280;13496;51.040;13.680;2023-03-23T21:03:56;99071.91;;;19.68;52.64
25638;BME280;13496;51.040;13.680;2023-03-23T21:09:00;99059.97;;;19.65;52.36
25638;BME280;13496;51.040;13.680;2023-03-23T21:14:03;99062.63;;;19.65;52.59
25638;BME280;13496;51.040;13.680;2023-03-23T21:19:05;99052.09;;;19.65;52.61
25638;BME280;13496;51.040;13.680;2023-03-23T21:24:09;99050.47;;;19.64;52.50
25638;BME280;13496;51.040;13.680;2023-03-23T21:29:10;99050.47;;;19.64;52.49
25638;BME280;13496;51.040;13.680;2023-03-23T21:34:12;99039.94;;;19.64;52.31
25638;BME280;13496;51.040;13.680;2023-03-23T21:39:14;99037.53;;;19.63;53.29
25638;BME280;13496;51.040;13.680;2023-03-23T21:44:16;99031.47;;;19.62;52.52
25638;BME280;13496;51.040;13.680;2023-03-23T21:49:18;99025.56;;;19.60;52.19
25638;BME280;13496;51.040;13.680;2023-03-23T21:54:20;99024.56;;;19.61;52.55
25638;BME280;13496;51.040;13.680;2023-03-23T21:59:23;99022.38;;;19.58;52.62
25638;BME280;13496;51.040;13.680;2023-03-23T22:04:24;99013.44;;;19.59;52.51
25638;BME280;13496;51.040;13.680;2023-03-23T22:09:26;99012.03;;;19.56;52.79
25638;BME280;13496;51.040;13.680;2023-03-23T22:14:28;98998.69;;;19.58;52.44
25638;BME280;13496;51.040;13.680;2023-03-23T22:19:30;98998.06;;;19.56;52.24
25638;BME280;13496;51.040;13.680;2023-03-23T22:24:33;98992.00;;;19.55;52.17
25638;BME280;13496;51.040;13.680;2023-03-23T22:29:35;98991.22;;;19.55;52.68
25638;BME280;13496;51.040;13.680;2023-03-23T22:34:36;98981.50;;;19.55;52.46
25638;BME280;13496;51.040;13.680;2023-03-23T22:39:38;98984.31;;;19.54;52.48
25638;BME280;13496;51.040;13.680;2023-03-23T22:44:40;98975.63;;;19.53;52.41
25638;BME280;13496;51.040;13.680;2023-03-23T22:49:42;98978.47;;;19.52;52.56
25638;BME280;13496;51.040;13.680;2023-03-23T22:54:43;98961.09;;;19.51;52.55
25638;BME280;13496;51.040;13.680;2023-03-23T22:59:48;98959.44;;;19.50;52.34
25638;BME280;13496;51.040;13.680;2023-03-23T23:04:50;98944.47;;;19.50;52.27
25638;BME280;13496;51.040;13.680;2023-03-23T23:09:52;98946.53;;;19.48;52.48
25638;BME280;13496;51.040;13.680;2023-03-23T23:14:54;98947.31;;;19.49;52.78
25638;BME280;13496;51.040;13.680;2023-03-23T23:19:56;98929.94;;;19.48;52.44
25638;BME280;13496;51.040;13.680;2023-03-23T23:24:59;98935.19;;;19.48;52.57
25638;BME280;13496;51.040;13.680;2023-03-23T23:30:01;98934.16;;;19.49;52.40
25638;BME280;13496;51.040;13.680;2023-03-23T23:35:06;98927.50;;;19.46;52.77
25638;BME280;13496;51.040;13.680;2023-03-23T23:40:08;98926.69;;;19.46;52.50
25638;BME280;13496;51.040;13.680;2023-03-23T23:45:10;98915.19;;;19.47;52.42
25638;BME280;13496;51.040;13.680;2023-03-23T23:50:12;98902.44;;;19.44;52.45
25638;BME280;13496;51.040;13.680;2023-03-23T23:55:15;98897.19;;;19.44;52.48
